createdAt,value
2018-10-09T00:01:48.932Z,101377.94
2018-10-09T00:04:18.695Z,101383.55
2018-10-09T00:06:48.380Z,101387.83
2018-10-09T00:09:48.230Z,101387.44
2018-10-09T00:15:14.168Z,101384.97
2018-10-09T00:17:43.867Z,101378.12
2018-10-09T00:20:17.584Z,101367.77
2018-10-09T00:22:47.454Z,101366.98
2018-10-09T00:25:48.062Z,101367.33
2018-10-09T00:28:49.339Z,101368.97
2018-10-09T00:31:19.045Z,101355.37
2018-10-09T00:33:48.721Z,101343.88
2018-10-09T00:36:19.464Z,101340.42
2018-10-09T00:53:02.739Z,101353.09
2018-10-09T00:55:32.550Z,101358.72
2018-10-09T00:58:02.294Z,101361.59
2018-10-09T01:00:42.585Z,101366.06
2018-10-09T01:03:41.231Z,101364.14
2018-10-09T01:06:10.958Z,101350.17
2018-10-09T01:08:40.859Z,101350.34
2018-10-09T01:11:11.026Z,101354.04
2018-10-09T01:13:52.662Z,101361.14
2018-10-09T01:16:22.456Z,101361.33
2018-10-09T01:18:52.122Z,101358.92
2018-10-09T01:21:21.731Z,101358.27
2018-10-09T01:24:21.255Z,101364.48
2018-10-09T01:26:54.734Z,101363.50
2018-10-09T01:29:24.451Z,101356.29
2018-10-09T01:31:54.206Z,101354.02
2018-10-09T01:34:23.898Z,101358.52
2018-10-09T01:36:53.675Z,101362.31
2018-10-09T01:39:59.663Z,101359.98
2018-10-09T01:42:29.377Z,101359.98
2018-10-09T01:44:59.036Z,101360.45
2018-10-09T01:47:55.050Z,101361.45
2018-10-09T01:50:24.727Z,101360.48
2018-10-09T01:53:30.986Z,101370.67
2018-10-09T01:56:00.837Z,101374.90
2018-10-09T01:58:30.714Z,101380.42
2018-10-09T02:01:00.424Z,101392.52
2018-10-09T02:07:37.561Z,101396.50
2018-10-09T02:10:07.266Z,101387.22
2018-10-09T02:12:36.997Z,101388.72
2018-10-09T02:15:06.976Z,101383.53
2018-10-09T02:17:36.696Z,101379.52
2018-10-09T02:20:06.364Z,101380.31
2018-10-09T02:22:36.018Z,101371.28
2018-10-09T02:25:05.730Z,101373.91
2018-10-09T02:28:13.939Z,101373.73
2018-10-09T02:30:43.650Z,101370.06
2018-10-09T02:33:34.098Z,101359.16
2018-10-09T02:36:03.714Z,101362.56
2018-10-09T02:39:09.739Z,101349.80
2018-10-09T02:42:02.869Z,101343.74
2018-10-09T02:44:32.490Z,101346.43
2018-10-09T02:47:13.238Z,101336.94
2018-10-09T02:49:43.137Z,101339.73
2018-10-09T02:52:12.747Z,101336.10
2018-10-09T02:54:42.429Z,101335.90
2018-10-09T02:57:22.420Z,101328.67
2018-10-09T02:59:55.480Z,101323.06
2018-10-09T03:02:25.226Z,101320.30
2018-10-09T03:04:54.930Z,101311.79
2018-10-09T03:07:24.678Z,101305.84
2018-10-09T03:09:54.342Z,101302.82
2018-10-09T03:12:24.027Z,101301.66
2018-10-09T03:14:53.914Z,101298.37
2018-10-09T03:17:23.612Z,101294.14
2018-10-09T03:19:53.313Z,101295.91
2018-10-09T03:22:23.089Z,101293.16
2018-10-09T03:24:52.739Z,101294.93
2018-10-09T03:27:22.417Z,101296.04
2018-10-09T03:29:52.110Z,101292.61
2018-10-09T03:32:21.715Z,101301.16
2018-10-09T03:37:40.689Z,101296.82
2018-10-09T03:40:10.411Z,101296.66
2018-10-09T03:42:40.039Z,101298.37
2018-10-09T03:45:23.378Z,101295.01
2018-10-09T03:47:53.334Z,101290.42
2018-10-09T03:50:23.072Z,101296.77
2018-10-09T03:52:55.798Z,101298.82
2018-10-09T03:55:25.453Z,101301.77
2018-10-09T03:57:55.012Z,101304.41
2018-10-09T04:00:24.766Z,101300.54
2018-10-09T04:02:54.424Z,101305.18
2018-10-09T04:05:24.123Z,101308.83
2018-10-09T04:07:53.820Z,101303.77
2018-10-09T04:15:26.430Z,101298.43
2018-10-09T04:17:56.122Z,101301.22
2018-10-09T04:20:25.801Z,101303.69
2018-10-09T04:22:55.498Z,101304.33
2018-10-09T04:25:25.216Z,101298.08
2018-10-09T04:28:20.982Z,101297.39
2018-10-09T04:30:53.511Z,101301.66
2018-10-09T04:33:23.442Z,101301.66
2018-10-09T04:35:53.308Z,101302.22
2018-10-09T04:38:24.038Z,101301.50
2018-10-09T04:40:53.775Z,101306.64
2018-10-09T04:43:23.951Z,101312.60
2018-10-09T04:45:53.735Z,101313.05
2018-10-09T04:48:23.455Z,101314.38
2018-10-09T04:50:53.282Z,101313.55
2018-10-09T04:53:23.622Z,101314.91
2018-10-09T04:55:53.303Z,101314.61
2018-10-09T04:58:22.974Z,101316.64
2018-10-09T05:00:52.616Z,101306.10
2018-10-09T05:03:22.433Z,101305.77
2018-10-09T05:05:52.511Z,101313.92
2018-10-09T05:08:22.133Z,101314.94
2018-10-09T05:10:52.218Z,101318.02
2018-10-09T05:13:22.144Z,101320.03
2018-10-09T05:15:51.930Z,101322.50
2018-10-09T05:18:21.601Z,101327.05
2018-10-09T05:20:51.292Z,101332.37
2018-10-09T05:23:21.038Z,101337.12
2018-10-09T05:25:51.230Z,101337.44
2018-10-09T05:28:22.301Z,101332.95
2018-10-09T05:30:52.139Z,101336.92
2018-10-09T05:33:21.913Z,101337.83
2018-10-09T05:35:53.874Z,101334.22
2018-10-09T05:38:23.903Z,101336.09
2018-10-09T05:40:53.640Z,101335.81
2018-10-09T05:43:37.625Z,101333.69
2018-10-09T05:46:08.071Z,101347.82
2018-10-09T05:48:37.751Z,101348.59
2018-10-09T05:51:07.778Z,101360.02
2018-10-09T05:53:37.522Z,101361.97
2018-10-09T05:56:08.861Z,101358.94
2018-10-09T05:58:38.572Z,101365.46
2018-10-09T06:01:08.851Z,101369.39
2018-10-09T06:03:38.542Z,101371.43
2018-10-09T06:06:08.439Z,101372.27
2018-10-09T06:08:39.095Z,101370.20
2018-10-09T06:11:09.296Z,101373.73
2018-10-09T06:13:38.962Z,101388.19
2018-10-09T06:16:08.612Z,101386.06
2018-10-09T06:18:38.297Z,101383.21
2018-10-09T06:21:08.552Z,101380.72
2018-10-09T06:23:38.187Z,101392.53
2018-10-09T06:26:24.046Z,101395.62
2018-10-09T06:28:53.711Z,101388.42
2018-10-09T06:31:25.291Z,101389.30
2018-10-09T06:33:55.042Z,101384.03
2018-10-09T06:36:24.704Z,101388.29
2018-10-09T06:38:54.543Z,101389.00
2018-10-09T06:41:25.510Z,101382.94
2018-10-09T06:43:55.407Z,101386.37
2018-10-09T06:46:25.218Z,101387.20
2018-10-09T06:48:55.113Z,101388.42
2018-10-09T06:51:34.910Z,101390.70
2018-10-09T06:54:05.060Z,101388.42
2018-10-09T06:56:36.047Z,101382.73
2018-10-09T06:59:32.424Z,101389.20
2018-10-09T07:02:06.428Z,101391.83
2018-10-09T07:04:36.507Z,101398.06
2018-10-09T07:07:07.001Z,101395.20
2018-10-09T07:09:36.985Z,101395.42
2018-10-09T07:12:32.150Z,101396.16
2018-10-09T07:15:02.227Z,101406.16
2018-10-09T07:17:32.179Z,101403.91
2018-10-09T07:20:02.061Z,101412.13
2018-10-09T07:22:31.998Z,101409.78
2018-10-09T07:25:01.939Z,101413.11
2018-10-09T07:27:35.471Z,101421.58
2018-10-09T07:30:06.286Z,101424.95
2018-10-09T07:32:36.186Z,101426.57
2018-10-09T07:35:33.580Z,101431.67
2018-10-09T07:41:13.800Z,101427.14
2018-10-09T07:43:43.844Z,101432.41
2018-10-09T07:46:13.647Z,101426.16
2018-10-09T07:49:35.933Z,101423.13
2018-10-09T07:52:05.707Z,101420.41
2018-10-09T07:54:43.450Z,101424.16
2018-10-09T07:57:13.257Z,101422.38
2018-10-09T08:01:24.100Z,101421.48
2018-10-09T08:03:53.868Z,101420.50
2018-10-09T08:06:23.652Z,101425.95
2018-10-09T08:08:53.358Z,101431.58
2018-10-09T08:11:23.181Z,101441.06
2018-10-09T08:13:52.919Z,101446.93
2018-10-09T08:16:22.833Z,101448.65
2018-10-09T08:18:52.608Z,101448.79
2018-10-09T08:21:22.313Z,101445.05
2018-10-09T08:23:52.522Z,101449.05
2018-10-09T08:26:22.319Z,101448.85
2018-10-09T08:28:52.060Z,101448.84
2018-10-09T08:31:21.768Z,101446.30
2018-10-09T08:33:51.531Z,101448.29
2018-10-09T08:36:21.326Z,101448.44
2018-10-09T08:38:51.127Z,101446.25
2018-10-09T08:41:21.020Z,101454.10
2018-10-09T08:43:50.681Z,101450.80
2018-10-09T08:46:20.725Z,101451.50
2018-10-09T08:49:20.427Z,101445.44
2018-10-09T08:52:13.561Z,101442.61
2018-10-09T08:55:10.792Z,101434.67
2018-10-09T08:57:40.504Z,101447.50
2018-10-09T09:00:11.211Z,101438.28
2018-10-09T09:02:40.933Z,101436.19
2018-10-09T09:05:10.594Z,101434.55
2018-10-09T09:10:58.883Z,101441.74
2018-10-09T09:13:28.623Z,101448.98
2018-10-09T09:16:05.590Z,101446.36
2018-10-09T09:18:35.299Z,101444.46
2018-10-09T09:21:05.117Z,101454.73
2018-10-09T09:23:34.873Z,101457.78
2018-10-09T09:26:04.667Z,101446.61
2018-10-09T09:28:34.336Z,101447.77
2018-10-09T09:31:04.034Z,101438.83
2018-10-09T09:34:04.801Z,101439.40
2018-10-09T09:36:34.516Z,101444.12
2018-10-09T09:39:32.237Z,101442.84
2018-10-09T09:42:01.992Z,101443.98
2018-10-09T09:44:31.702Z,101438.67
2018-10-09T09:47:01.422Z,101438.74
2018-10-09T09:49:31.127Z,101435.22
2018-10-09T09:52:00.896Z,101433.66
2018-10-09T09:54:30.572Z,101429.50
2018-10-09T09:57:05.791Z,101432.66
2018-10-09T10:03:02.589Z,101425.91
2018-10-09T10:05:32.356Z,101429.98
2018-10-09T10:08:02.271Z,101429.05
2018-10-09T10:10:31.925Z,101422.58
2018-10-09T10:13:02.251Z,101420.47
2018-10-09T10:15:35.707Z,101415.36
2018-10-09T10:18:05.479Z,101411.53
2018-10-09T10:20:35.216Z,101414.91
2018-10-09T10:23:05.007Z,101416.91
2018-10-09T10:50:34.566Z,101394.40
2018-10-09T10:53:04.528Z,101398.91
2018-10-09T10:55:48.696Z,101385.36
2018-10-09T10:58:29.785Z,101389.37
2018-10-09T11:01:01.745Z,101380.75
2018-10-09T11:03:52.629Z,101380.98
2018-10-09T11:06:22.481Z,101381.45
2018-10-09T11:08:52.163Z,101378.68
2018-10-09T11:11:21.886Z,101385.23
2018-10-09T11:13:51.466Z,101376.77
2018-10-09T11:16:21.056Z,101368.03
2018-10-09T11:18:50.671Z,101365.23
2018-10-09T11:21:20.509Z,101370.17
2018-10-09T11:23:50.160Z,101361.06
2018-10-09T11:26:21.415Z,101365.76
2018-10-09T11:28:51.417Z,101368.25
2018-10-09T11:31:21.078Z,101363.07
2018-10-09T11:33:50.674Z,101361.25
2018-10-09T11:36:51.214Z,101361.91
2018-10-09T11:39:20.920Z,101360.08
2018-10-09T11:41:50.583Z,101351.41
2018-10-09T11:44:20.227Z,101349.17
2018-10-09T11:46:49.954Z,101345.22
2018-10-09T11:49:19.561Z,101355.41
2018-10-09T11:55:18.946Z,101340.30
2018-10-09T11:57:48.611Z,101343.23
2018-10-09T12:00:18.375Z,101333.19
2018-10-09T12:02:48.104Z,101325.28
2018-10-09T12:05:17.703Z,101322.13
2018-10-09T12:07:47.583Z,101323.12
2018-10-09T12:10:17.251Z,101319.70
2018-10-09T12:12:46.995Z,101308.42
2018-10-09T12:15:16.679Z,101314.56
2018-10-09T12:17:46.446Z,101306.27
2018-10-09T12:20:16.074Z,101307.47
2018-10-09T12:22:45.674Z,101304.66
2018-10-09T12:25:15.351Z,101307.09
2018-10-09T12:27:45.002Z,101303.14
2018-10-09T12:30:14.639Z,101302.30
2018-10-09T12:32:44.375Z,101304.21
2018-10-09T12:35:14.020Z,101295.87
2018-10-09T12:37:43.720Z,101295.55
2018-10-09T12:40:13.367Z,101300.80
2018-10-09T12:42:43.074Z,101289.95
2018-10-09T12:45:12.751Z,101283.33
2018-10-09T12:48:03.183Z,101285.98
2018-10-09T12:50:32.841Z,101276.08
2018-10-09T12:53:02.674Z,101273.44
2018-10-09T12:55:35.981Z,101275.34
2018-10-09T12:58:33.707Z,101270.22
2018-10-09T13:01:04.791Z,101267.37
2018-10-09T13:03:35.598Z,101267.59
2018-10-09T13:06:05.272Z,101261.16
2018-10-09T13:08:34.908Z,101265.60
2018-10-09T13:11:23.292Z,101261.63
2018-10-09T13:13:53.163Z,101262.59
2018-10-09T13:16:22.907Z,101257.43
2018-10-09T13:19:01.423Z,101264.97
2018-10-09T13:21:31.514Z,101262.75
2018-10-09T13:24:00.974Z,101263.41
2018-10-09T13:26:30.643Z,101258.14
2018-10-09T13:29:00.382Z,101261.34
2018-10-09T13:31:30.147Z,101257.55
2018-10-09T13:34:05.739Z,101260.42
2018-10-09T13:36:35.631Z,101255.39
2018-10-09T13:39:06.603Z,101256.52
2018-10-09T13:41:36.264Z,101253.55
2018-10-09T13:44:06.171Z,101248.52
2018-10-09T13:47:04.450Z,101247.86
2018-10-09T13:49:54.260Z,101247.55
2018-10-09T13:54:11.304Z,101247.68
2018-10-09T13:56:41.389Z,101252.30
2018-10-09T13:59:11.435Z,101248.87
2018-10-09T14:01:41.394Z,101247.14
2018-10-09T14:04:20.042Z,101242.58
2018-10-09T14:20:31.887Z,101244.02
2018-10-09T14:23:22.620Z,101243.91
2018-10-09T14:25:52.375Z,101238.24
2018-10-09T14:28:22.043Z,101234.09
2018-10-09T14:30:51.683Z,101234.50
2018-10-09T14:33:21.286Z,101226.45
2018-10-09T14:35:51.353Z,101233.45
2018-10-09T14:38:20.946Z,101230.09
2018-10-09T14:40:55.191Z,101235.86
2018-10-09T14:43:24.941Z,101233.31
2018-10-09T14:45:54.614Z,101240.05
2018-10-09T14:48:49.366Z,101228.69
2018-10-09T14:51:19.013Z,101227.05
2018-10-09T14:53:48.784Z,101228.64
2018-10-09T14:56:18.479Z,101229.89
2018-10-09T14:58:48.138Z,101234.08
2018-10-09T15:01:17.877Z,101232.53
2018-10-09T15:03:54.187Z,101232.37
2018-10-09T15:06:28.402Z,101228.73
2018-10-09T15:09:16.004Z,101234.49
2018-10-09T15:11:45.788Z,101229.84
2018-10-09T15:14:15.411Z,101230.45
2018-10-09T15:16:45.082Z,101236.20
2018-10-09T15:19:15.028Z,101241.42
2018-10-09T15:21:55.754Z,101242.84
2018-10-09T15:24:25.420Z,101243.64
2018-10-09T15:26:55.053Z,101241.61
2018-10-09T15:29:24.651Z,101239.14
2018-10-09T15:32:00.448Z,101243.19
2018-10-09T15:34:41.764Z,101241.86
2018-10-09T15:39:49.612Z,101230.48
2018-10-09T15:42:19.355Z,101244.19
2018-10-09T15:44:53.342Z,101242.00
2018-10-09T15:47:29.244Z,101239.78
2018-10-09T15:49:58.970Z,101253.09
2018-10-09T15:52:28.626Z,101251.05
2018-10-09T15:55:01.894Z,101252.61
2018-10-09T15:57:31.635Z,101256.03
2018-10-09T16:00:01.286Z,101251.91
2018-10-09T16:02:30.961Z,101249.53
2018-10-09T16:05:00.606Z,101241.66
2018-10-09T16:07:30.363Z,101246.66
2018-10-09T16:10:00.524Z,101241.31
2018-10-09T16:12:30.135Z,101247.66
2018-10-09T16:14:59.763Z,101252.39
2018-10-09T16:17:30.560Z,101252.80
2018-10-09T16:20:00.240Z,101250.94
2018-10-09T16:22:29.900Z,101253.23
2018-10-09T16:27:43.750Z,101245.77
2018-10-09T16:30:13.529Z,101254.03
2018-10-09T16:33:01.717Z,101253.87
2018-10-09T16:35:31.420Z,101259.33
2018-10-09T16:38:01.005Z,101257.06
2018-10-09T16:40:31.581Z,101259.23
2018-10-09T16:43:32.088Z,101262.70
2018-10-09T16:46:01.757Z,101263.48
2018-10-09T16:48:31.487Z,101272.50
2018-10-09T16:51:01.253Z,101272.69
2018-10-09T16:53:31.023Z,101268.55
2018-10-09T16:56:00.748Z,101269.30
2018-10-09T16:58:30.556Z,101269.30
2018-10-09T17:01:17.026Z,101267.41
2018-10-09T17:06:50.257Z,101276.63
2018-10-09T17:09:21.783Z,101274.56
2018-10-09T17:11:51.985Z,101280.14
2018-10-09T17:14:22.119Z,101280.81
2018-10-09T17:19:51.556Z,101279.60
2018-10-09T17:22:22.305Z,101282.98
2018-10-09T17:24:51.957Z,101287.86
2018-10-09T17:27:21.586Z,101289.70
2018-10-09T17:29:52.309Z,101291.27
2018-10-09T17:32:22.010Z,101295.52
2018-10-09T17:34:51.638Z,101292.02
2018-10-09T17:37:21.348Z,101293.31
2018-10-09T17:39:51.194Z,101291.91
2018-10-09T17:42:21.917Z,101292.76
2018-10-09T17:44:51.948Z,101299.23
2018-10-09T17:47:21.984Z,101299.39
2018-10-09T17:49:52.002Z,101303.71
2018-10-09T17:52:22.025Z,101300.22
2018-10-09T17:55:14.975Z,101310.34
2018-10-09T17:57:45.106Z,101312.69
2018-10-09T18:00:15.193Z,101306.00
2018-10-09T18:02:51.428Z,101304.34
2018-10-09T18:05:21.723Z,101307.48
2018-10-09T18:07:56.882Z,101308.95
2018-10-09T18:10:29.390Z,101307.38
2018-10-09T18:12:59.619Z,101306.75
2018-10-09T18:15:30.429Z,101305.89
2018-10-09T18:18:00.667Z,101309.39
2018-10-09T18:20:31.483Z,101305.99
2018-10-09T18:23:11.091Z,101309.53
2018-10-09T18:27:51.755Z,101311.90
2018-10-09T18:30:29.065Z,101313.77
2018-10-09T18:32:59.244Z,101321.55
2018-10-09T18:35:53.509Z,101325.97
2018-10-09T18:38:23.308Z,101324.19
2018-10-09T18:40:53.279Z,101316.31
2018-10-09T18:43:37.361Z,101321.09
2018-10-09T18:46:26.366Z,101321.44
2018-10-09T18:48:56.465Z,101326.73
2018-10-09T18:51:39.630Z,101327.72
2018-10-09T18:54:09.872Z,101325.04
2018-10-09T18:56:40.344Z,101324.76
2018-10-09T18:59:10.257Z,101323.67
2018-10-09T19:01:40.496Z,101322.63
2018-10-09T19:04:10.413Z,101317.94
2018-10-09T19:06:47.298Z,101323.80
2018-10-09T19:09:17.123Z,101317.88
2018-10-09T19:11:47.010Z,101320.83
2018-10-09T19:14:39.265Z,101324.13
2018-10-09T19:17:11.541Z,101327.67
2018-10-09T19:19:41.287Z,101330.84
2018-10-09T19:22:39.609Z,101332.34
2018-10-09T19:25:09.680Z,101336.25
2018-10-09T19:27:39.807Z,101327.12
2018-10-09T19:30:11.435Z,101330.93
2018-10-09T19:32:41.494Z,101335.70
2018-10-09T19:35:11.234Z,101332.32
2018-10-09T19:37:41.064Z,101340.75
2018-10-09T19:40:15.050Z,101341.00
2018-10-09T19:42:44.880Z,101342.30
2018-10-09T19:45:15.010Z,101342.77
2018-10-09T19:47:44.995Z,101341.28
2018-10-09T19:50:15.287Z,101342.20
2018-10-09T19:52:45.160Z,101345.93
2018-10-09T19:55:15.132Z,101348.86
2018-10-09T19:57:44.853Z,101347.12
2018-10-09T20:03:28.899Z,101343.95
2018-10-09T20:06:19.115Z,101349.53
2018-10-09T20:22:37.634Z,101342.03
2018-10-09T20:25:07.620Z,101348.84
2018-10-09T20:27:37.594Z,101341.20
2018-10-09T20:30:31.880Z,101333.45
2018-10-09T20:33:02.648Z,101336.25
2018-10-09T20:35:33.030Z,101341.69
2018-10-09T20:38:02.777Z,101340.83
2018-10-09T20:40:40.154Z,101340.20
2018-10-09T20:43:28.117Z,101339.14
2018-10-09T20:45:57.861Z,101338.06
2018-10-09T20:48:27.822Z,101343.45
2018-10-09T20:50:57.731Z,101340.88
2018-10-09T20:53:27.443Z,101340.94
2018-10-09T20:55:57.167Z,101334.67
2018-10-09T20:58:26.988Z,101337.03
2018-10-09T21:00:56.920Z,101343.59
2018-10-09T21:03:28.233Z,101340.61
2018-10-09T21:06:22.240Z,101344.08
2018-10-09T21:08:52.716Z,101339.53
2018-10-09T21:11:52.259Z,101339.72
2018-10-09T21:14:22.092Z,101333.50
2018-10-09T21:16:52.778Z,101334.19
2018-10-09T21:19:22.665Z,101333.52
2018-10-09T21:21:56.072Z,101334.55
2018-10-09T21:24:51.532Z,101330.45
2018-10-09T21:27:22.297Z,101329.58
2018-10-09T21:30:22.126Z,101328.37
2018-10-09T21:33:22.426Z,101330.73
2018-10-09T21:38:55.733Z,101332.23
2018-10-09T21:41:27.637Z,101329.84
2018-10-09T21:44:24.655Z,101332.19
2018-10-09T21:49:55.231Z,101332.66
2018-10-09T21:55:26.136Z,101330.28
2018-10-09T21:57:56.667Z,101331.98
2018-10-09T22:00:26.604Z,101333.58
2018-10-09T22:02:56.377Z,101339.03
2018-10-09T22:05:26.113Z,101342.32
2018-10-09T22:07:55.895Z,101337.98
2018-10-09T22:10:35.966Z,101335.34
2018-10-09T22:13:05.968Z,101342.08
2018-10-09T22:15:36.976Z,101340.65
2018-10-09T22:18:06.735Z,101337.95
2018-10-09T22:20:36.511Z,101338.27
2018-10-09T22:26:06.872Z,101328.89
2018-10-09T22:28:36.695Z,101329.28
2018-10-09T22:31:06.544Z,101333.96
2018-10-09T22:33:36.253Z,101326.95
2018-10-09T22:36:18.583Z,101326.64
2018-10-09T22:38:48.369Z,101321.52
2018-10-09T22:41:18.353Z,101321.22
2018-10-09T22:43:48.140Z,101325.53
2018-10-09T22:46:18.615Z,101322.36
2018-10-09T22:48:48.605Z,101322.95
2018-10-09T22:54:28.242Z,101314.73
2018-10-09T22:56:57.994Z,101321.56
2018-10-09T22:59:28.065Z,101314.87
2018-10-09T23:01:57.888Z,101312.95
2018-10-09T23:04:27.622Z,101316.55
2018-10-09T23:06:57.639Z,101319.16
2018-10-09T23:09:27.312Z,101318.00
2018-10-09T23:11:57.088Z,101319.25
2018-10-09T23:14:26.881Z,101320.30
2018-10-09T23:16:56.955Z,101317.63
2018-10-09T23:19:26.787Z,101316.67
2018-10-09T23:21:57.003Z,101317.84
2018-10-09T23:24:26.816Z,101324.16
2018-10-09T23:29:57.012Z,101325.24
2018-10-09T23:32:26.814Z,101320.21
2018-10-09T23:34:56.742Z,101310.78
2018-10-09T23:37:26.561Z,101310.50
2018-10-09T23:39:56.252Z,101307.70
2018-10-09T23:42:26.131Z,101311.52
2018-10-09T23:44:55.884Z,101302.09
2018-10-09T23:47:25.812Z,101309.31
2018-10-09T23:49:55.655Z,101310.11
2018-10-09T23:52:25.562Z,101308.96
2018-10-09T23:55:13.948Z,101316.50
2018-10-09T23:57:49.908Z,101313.09
